Time;durP1;ratioP1;P1;durP2;ratioP2;P2;SDS_P1;SDS_P2;PMS_P1;PMS_P2;Temp;Humidity;BMP_temperature;BMP_pressure;BME280_temperature;BME280_humidity;BME280_pressure;Samples;Min_cycle;Max_cycle;Signal;HPM_P1;HPM_P2
2022/06/25 17:54:47;;;;;;;38.00;34.07;;;26.20;74.30;;;;;;5054977;28;20571;-62
2022/06/25 17:57:14;;;;;;;8.57;6.53;;;26.20;61.00;;;;;;5058963;28;20910;-63
2022/06/25 17:59:40;;;;;;;4.67;4.30;;;;;;;;;;5066608;28;20261;-63
2022/06/25 18:02:06;;;;;;;8.60;6.50;;;;;;;;;;5057089;28;20503;-63
2022/06/25 18:04:32;;;;;;;16.17;14.40;;;;;;;;;;5054346;28;20435;-63
2022/06/25 18:06:58;;;;;;;6.40;5.63;;;;;;;;;;5062420;28;20418;-63
2022/06/25 18:09:24;;;;;;;6.80;6.20;;;;;;;;;;5064647;28;20421;-63
2022/06/25 18:11:51;;;;;;;42.10;37.60;;;;;;;;;;5066625;28;20414;-63
2022/06/25 18:14:17;;;;;;;25.13;18.17;;;;;;;;;;5063400;28;20881;-63
2022/06/25 18:16:43;;;;;;;274.23;250.23;;;;;;;;;;5058236;28;20423;-63
2022/06/25 18:19:08;;;;;;;31.10;20.80;;;25.80;78.00;;;;;;5062649;28;20406;-63
2022/06/25 18:21:34;;;;;;;9.17;8.20;;;26.00;85.70;;;;;;5066530;28;20426;-63
2022/06/25 18:23:59;;;;;;;8.93;7.60;;;26.00;83.20;;;;;;5062067;28;20196;-63
2022/06/25 18:26:26;;;;;;;10.80;8.50;;;;;;;;;;5073662;28;20211;-63
2022/06/25 18:28:52;;;;;;;12.17;9.60;;;;;;;;;;5076826;28;20204;-63
2022/06/25 18:31:19;;;;;;;98.17;89.63;;;;;;;;;;5053054;28;20438;-63
2022/06/25 18:33:45;;;;;;;13.73;8.60;;;;;;;;;;5061252;28;20952;-63
2022/06/25 18:36:11;;;;;;;642.07;585.57;;;;;;;;;;5059114;28;20839;-63
2022/06/25 18:38:37;;;;;;;509.53;464.60;;;;;;;;;;5046677;28;20427;-63
2022/06/25 18:41:04;;;;;;;15.63;7.93;;;25.90;60.10;;;;;;5046148;28;20497;-63
2022/06/25 18:43:30;;;;;;;7.30;4.60;;;25.90;62.70;;;;;;5060173;28;20816;-64
2022/06/25 18:45:56;;;;;;;28.20;25.23;;;26.00;76.70;;;;;;5063771;28;20466;-63
2022/06/25 18:48:22;;;;;;;7.30;6.60;;;26.00;79.10;;;;;;5066087;28;20422;-64
2022/06/25 18:50:48;;;;;;;8.63;7.13;;;;;;;;;;5065215;28;20180;-63
2022/06/25 18:53:14;;;;;;;8.07;6.83;;;;;;;;;;5056176;28;20577;-63
2022/06/25 18:55:40;;;;;;;9.17;7.07;;;;;;;;;;5051718;28;20542;-63
2022/06/25 18:58:06;;;;;;;768.60;697.37;;;;;;;;;;5058446;28;20773;-64
2022/06/25 19:00:32;;;;;;;748.57;680.07;;;;;;;;;;5049085;28;20492;-63
2022/06/25 19:02:58;;;;;;;799.13;716.77;;;;;;;;;;5049475;28;20550;-63
2022/06/25 19:05:24;;;;;;;97.77;81.80;;;;;;;;;;5043497;28;20510;-63
2022/06/25 19:07:49;;;;;;;84.17;58.30;;;26.00;84.80;;;;;;5047069;28;20453;-63
2022/06/25 19:10:15;;;;;;;6.63;6.00;;;25.70;78.40;;;;;;5045515;28;20439;-63
2022/06/25 19:12:41;;;;;;;79.03;70.10;;;;;;;;;;5050892;28;20219;-64
2022/06/25 19:15:07;;;;;;;6.57;5.90;;;;;;;;;;5047904;28;20642;-63
2022/06/25 19:17:33;;;;;;;7.10;5.67;;;;;;;;;;5052252;28;20845;-63
2022/06/25 19:19:59;;;;;;;13.00;8.90;;;;;;;;;;5047952;28;20426;-64
2022/06/25 19:22:25;;;;;;;8.40;6.10;;;;;;;;;;5052357;28;20514;-63
2022/06/25 19:24:51;;;;;;;18.77;13.23;;;;;;;;;;5051874;28;20434;-63
2022/06/25 19:27:17;;;;;;;136.63;124.80;;;;;;;;;;5066445;28;20509;-63
2022/06/25 19:29:43;;;;;;;62.67;44.83;;;;;;;;;;5039376;28;20423;-63
2022/06/25 19:32:09;;;;;;;10.37;8.03;;;25.90;74.20;;;;;;5031883;28;20430;-63
2022/06/25 19:34:35;;;;;;;814.27;726.20;;;;;;;;;;5031910;28;20211;-63
2022/06/25 19:37:01;;;;;;;9.60;7.70;;;;;;;;;;5045885;28;20185;-63
2022/06/25 19:39:27;;;;;;;6.43;5.07;;;;;;;;;;5039037;28;20927;-63
2022/06/25 19:41:54;;;;;;;7.30;6.10;;;;;;;;;;5032127;28;20501;-63
2022/06/25 19:44:20;;;;;;;5.90;5.03;;;25.90;79.10;;;;;;5045885;28;20431;-63
2022/06/25 19:46:47;;;;;;;9.93;6.73;;;;;;;;;;5045115;28;20496;-63
2022/06/25 19:49:13;;;;;;;8.03;5.60;;;;;;;;;;5032002;28;20428;-64
2022/06/25 19:51:39;;;;;;;8.13;6.13;;;;;;;;;;5031741;28;20452;-63
2022/06/25 19:54:05;;;;;;;8.33;6.13;;;25.80;60.20;;;;;;5031517;28;20810;-63
2022/06/25 19:56:32;;;;;;;7.23;5.33;;;;;;;;;;5031705;28;20408;-64
2022/06/25 19:59:04;;;;;;;8.90;6.60;;;25.70;81.80;;;;;;5046265;28;20188;-63
2022/06/25 20:01:30;;;;;;;7.80;6.50;;;;;;;;;;5040009;28;20469;-63
2022/06/25 20:03:56;;;;;;;7.17;5.70;;;25.70;68.80;;;;;;5041082;28;20419;-63
2022/06/25 20:06:22;;;;;;;8.60;7.13;;;;;;;;;;5038504;28;20431;-63
2022/06/25 20:08:48;;;;;;;11.03;7.93;;;;;;;;;;5048119;28;20255;-63
2022/06/25 20:11:14;;;;;;;8.07;6.57;;;;;;;;;;5031705;28;20431;-63
2022/06/25 20:13:40;;;;;;;6.63;4.50;;;;;;;;;;5038598;28;20516;-64
2022/06/25 20:16:06;;;;;;;12.80;8.17;;;;;;;;;;5045435;28;20415;-64
2022/06/25 20:18:32;;;;;;;11.77;7.37;;;25.90;77.60;;;;;;5049275;28;20423;-63
2022/06/25 20:20:58;;;;;;;13.13;8.10;;;25.60;76.30;;;;;;5038790;28;21147;-63
2022/06/25 20:23:24;;;;;;;15.53;10.27;;;;;;;;;;5047533;28;20295;-63
2022/06/25 20:25:50;;;;;;;17.00;9.60;;;25.70;60.80;;;;;;5042670;28;20496;-63
2022/06/25 20:28:16;;;;;;;17.00;10.70;;;;;;;;;;5043000;28;20427;-63
2022/06/25 20:30:42;;;;;;;20.90;12.07;;;;;;;;;;5046758;28;20492;-63
2022/06/25 20:33:08;;;;;;;253.07;226.73;;;;;;;;;;5043875;28;21156;-64
2022/06/25 20:35:34;;;;;;;12.97;8.07;;;;;;;;;;5050507;28;20498;-63
2022/06/25 20:38:01;;;;;;;24.37;17.63;;;25.70;67.70;;;;;;5043347;28;20431;-63
2022/06/25 20:40:27;;;;;;;20.47;18.37;;;;;;;;;;5035790;28;20432;-63
2022/06/25 20:42:53;;;;;;;4.40;4.10;;;;;;;;;;5036404;28;20872;-63
2022/06/25 20:45:19;;;;;;;8.57;7.70;;;;;;;;;;5042448;28;20419;-63
2022/06/25 20:47:45;;;;;;;8.70;6.10;;;;;;;;;;5037487;28;20448;-63
2022/06/25 20:50:12;;;;;;;10.33;6.97;;;25.60;78.50;;;;;;5036942;28;20419;-63
2022/06/25 20:52:38;;;;;;;13.10;9.07;;;25.70;61.10;;;;;;5041079;28;20450;-63
2022/06/25 20:55:04;;;;;;;21.50;17.30;;;25.70;64.00;;;;;;5037260;28;20819;-63
2022/06/25 20:57:32;;;;;;;40.70;27.57;;;;;;;;;;5043877;28;20459;-63
2022/06/25 20:59:58;;;;;;;83.17;65.37;;;;;;;;;;5041210;28;20597;-63
2022/06/25 21:02:24;;;;;;;9.83;8.60;;;;;;;;;;5037760;28;20539;-64
2022/06/25 21:10:19;;;;;;;5.03;4.60;;;;;;;;;;5042422;28;20890;-63
2022/06/25 21:12:44;;;;;;;8.50;5.90;;;25.60;66.50;;;;;;5037214;28;20451;-63
2022/06/25 21:15:10;;;;;;;5.20;4.90;;;;;;;;;;5037097;28;20435;-63
2022/06/25 21:17:36;;;;;;;7.87;7.07;;;;;;;;;;5038494;28;20185;-63
2022/06/25 21:20:02;;;;;;;43.23;38.80;;;;;;;;;;5045372;28;20423;-63
2022/06/25 21:22:29;;;;;;;10.53;9.30;;;;;;;;;;5044565;28;20470;-63
2022/06/25 21:24:54;;;;;;;14.83;11.23;;;25.80;76.40;;;;;;5039286;28;20502;-64
2022/06/25 21:27:20;;;;;;;73.67;66.40;;;;;;;;;;5049160;28;20494;-64
2022/06/25 21:29:46;;;;;;;18.17;15.17;;;;;;;;;;5035741;28;20538;-63
2022/06/25 21:32:12;;;;;;;23.87;21.00;;;;;;;;;;5039894;28;20509;-64
2022/06/25 21:34:38;;;;;;;6.03;5.50;;;;;;;;;;5037594;28;20527;-63
2022/06/25 21:37:04;;;;;;;6.73;6.20;;;;;;;;;;5028149;28;20538;-63
2022/06/25 21:39:30;;;;;;;6.77;6.20;;;;;;;;;;5037839;28;20418;-63
2022/06/25 21:41:55;;;;;;;5.73;5.20;;;25.60;82.10;;;;;;5038323;28;20435;-63
2022/06/25 21:44:21;;;;;;;5.23;4.80;;;25.80;86.90;;;;;;5039437;28;21572;-63
2022/06/25 21:46:47;;;;;;;8.10;6.80;;;25.70;88.20;;;;;;5042463;28;20271;-63
2022/06/25 21:49:13;;;;;;;5.40;4.90;;;25.50;77.30;;;;;;5041032;28;20188;-63
2022/06/25 21:51:39;;;;;;;13.70;10.93;;;25.80;84.30;;;;;;5036795;28;20208;-63
2022/06/25 21:54:06;;;;;;;22.90;15.90;;;25.70;61.60;;;;;;5031638;28;20238;-63
2022/06/25 21:56:32;;;;;;;2.70;2.60;;;;;;;;;;5033131;28;20448;-63
2022/06/25 21:58:58;;;;;;;4.90;2.50;;;25.80;77.00;;;;;;5032634;28;20486;-63
2022/06/25 22:01:24;;;;;;;2.60;2.50;;;25.80;71.10;;;;;;5032663;28;21112;-63
2022/06/25 22:03:50;;;;;;;2.97;2.87;;;;;;;;;;5035124;28;20695;-63
2022/06/25 22:06:16;;;;;;;2.80;2.60;;;;;;;;;;5031515;28;20773;-63
2022/06/25 22:08:42;;;;;;;3.53;3.23;;;;;;;;;;5038604;28;20864;-63
2022/06/25 22:11:08;;;;;;;3.13;2.90;;;26.30;70.30;;;;;;5033924;28;20434;-63
2022/06/25 22:13:35;;;;;;;5.20;4.80;;;;;;;;;;5032574;28;20576;-63
2022/06/25 22:16:00;;;;;;;7.83;7.10;;;;;;;;;;5036059;28;20420;-63
2022/06/25 22:18:26;;;;;;;22.03;14.70;;;;;;;;;;5033461;28;20808;-63
2022/06/25 22:20:52;;;;;;;67.30;60.23;;;;;;;;;;5031207;28;20416;-63
2022/06/25 22:23:21;;;;;;;9.53;7.37;;;25.70;61.70;;;;;;5030222;28;20545;-64
2022/06/25 22:25:48;;;;;;;23.73;21.17;;;25.70;87.60;;;;;;5033961;28;20432;-63
2022/06/25 22:28:15;;;;;;;3.50;3.27;;;25.10;61.20;;;;;;5030826;28;21010;-63
2022/06/25 22:30:42;;;;;;;2.93;2.73;;;25.70;61.40;;;;;;5029233;28;20507;-63
2022/06/25 22:33:08;;;;;;;2.53;2.33;;;;;;;;;;5028174;28;20855;-63
2022/06/25 22:35:34;;;;;;;1.50;1.40;;;;;;;;;;5037995;28;21029;-63
2022/06/25 22:38:00;;;;;;;1.87;1.77;;;;;;;;;;5032649;28;20491;-63
2022/06/25 22:40:27;;;;;;;2.77;2.57;;;;;;;;;;5037801;28;20445;-63
2022/06/25 22:42:53;;;;;;;1.63;1.53;;;;;;;;;;5034033;28;20600;-63
2022/06/25 22:45:19;;;;;;;1.10;1.10;;;;;;;;;;5036982;28;20889;-63
2022/06/25 22:47:44;;;;;;;0.70;0.70;;;25.50;79.50;;;;;;5045321;28;20426;-63
2022/06/25 22:50:12;;;;;;;1.07;1.00;;;25.80;82.90;;;;;;5048215;28;20453;-63
2022/06/25 22:52:38;;;;;;;3.30;1.33;;;;;;;;;;5045867;28;20220;-63
2022/06/25 22:55:04;;;;;;;0.67;0.67;;;25.80;61.40;;;;;;5052066;28;20439;-63
2022/06/25 22:57:30;;;;;;;1.23;0.80;;;;;;;;;;5050815;28;20426;-63
2022/06/25 22:59:56;;;;;;;0.77;0.77;;;25.50;79.80;;;;;;5049622;28;20426;-63
2022/06/25 23:02:22;;;;;;;0.90;0.90;;;;;;;;;;5043663;28;20442;-63
2022/06/25 23:04:48;;;;;;;0.83;0.83;;;;;;;;;;5036089;28;20324;-63
2022/06/25 23:07:13;;;;;;;0.70;0.70;;;25.70;71.20;;;;;;5031450;28;20419;-63
2022/06/25 23:09:39;;;;;;;1.00;1.00;;;25.90;62.00;;;;;;5036460;28;20698;-63
2022/06/25 23:12:05;;;;;;;0.97;0.97;;;25.80;70.30;;;;;;5050327;28;20255;-64
2022/06/25 23:14:31;;;;;;;1.00;1.00;;;25.60;73.00;;;;;;5050089;28;20509;-63
2022/06/25 23:16:57;;;;;;;0.93;0.93;;;25.50;78.70;;;;;;5044347;28;20185;-63
2022/06/25 23:19:23;;;;;;;1.10;1.00;;;;;;;;;;5038693;28;20446;-64
2022/06/25 23:21:50;;;;;;;1.00;0.90;;;;;;;;;;5038883;28;20574;-63
2022/06/25 23:24:16;;;;;;;0.70;0.70;;;;;;;;;;5044771;28;20418;-64
2022/06/25 23:26:42;;;;;;;1.20;1.20;;;25.50;70.60;;;;;;5058958;28;20425;-63
2022/06/25 23:29:08;;;;;;;0.90;0.90;;;25.90;65.10;;;;;;5032255;28;20435;-63
2022/06/25 23:31:35;;;;;;;1.07;1.07;;;25.60;78.00;;;;;;5037308;28;20281;-63
2022/06/25 23:34:01;;;;;;;1.20;1.10;;;25.60;70.80;;;;;;5037592;28;20463;-63
2022/06/25 23:36:26;;;;;;;0.90;0.90;;;25.80;83.40;;;;;;5040340;28;20424;-63
2022/06/25 23:38:52;;;;;;;1.00;1.00;;;25.60;81.20;;;;;;5048383;28;20476;-63
2022/06/25 23:41:18;;;;;;;1.03;1.03;;;;;;;;;;5050177;28;20172;-63
2022/06/25 23:43:43;;;;;;;0.90;0.90;;;25.70;77.90;;;;;;5043732;28;20208;-63
2022/06/25 23:46:09;;;;;;;5.80;0.80;;;25.80;80.70;;;;;;5037754;28;20880;-63
2022/06/25 23:48:35;;;;;;;0.93;0.93;;;25.50;73.40;;;;;;5031564;28;20594;-63
2022/06/25 23:51:01;;;;;;;0.83;0.70;;;;;;;;;;5047382;28;20694;-63
2022/06/25 23:53:27;;;;;;;1.10;1.10;;;;;;;;;;5050888;28;20548;-63
2022/06/25 23:55:53;;;;;;;1.00;1.00;;;;;;;;;;5051309;28;20870;-63
2022/06/25 23:58:19;;;;;;;1.17;1.07;;;25.80;78.00;;;;;;5051257;28;20823;-63
